Time;durP1;ratioP1;P1;durP2;ratioP2;P2;SDS_P1;SDS_P2;PMS_P1;PMS_P2;Temp;Humidity;BMP_temperature;BMP_pressure;BME280_temperature;BME280_humidity;BME280_pressure;Samples;Min_cycle;Max_cycle;Signal;HPM_P1;HPM_P2
2023/10/22 00:00:07;;;;;;;16.70;13.70;;;;;;;17.59;86.83;98964.36;109585;1252;72390;-54
2023/10/22 00:02:38;;;;;;;33.00;16.30;;;;;;;17.57;87.20;98963.31;109515;1253;61916;-52
2023/10/22 00:05:05;;;;;;;24.50;15.60;;;;;;;17.61;87.15;98965.21;109512;1252;60116;-53
2023/10/22 00:07:32;;;;;;;20.50;17.10;;;;;;;17.62;87.16;98972.95;109352;1252;74543;-52
2023/10/22 00:09:59;;;;;;;19.80;15.50;;;;;;;17.71;86.82;98978.60;109580;1253;68546;-52
2023/10/22 00:12:26;;;;;;;19.70;17.00;;;;;;;17.67;86.81;98997.23;109585;1252;72668;-52
2023/10/22 00:14:53;;;;;;;26.90;16.90;;;;;;;17.68;87.22;99000.20;109552;1252;61884;-52
2023/10/22 00:17:19;;;;;;;17.30;14.30;;;;;;;17.68;87.00;98987.88;109575;1252;59027;-52
2023/10/22 00:19:46;;;;;;;19.80;15.70;;;;;;;17.70;86.79;98991.60;109578;1253;74379;-52
2023/10/22 00:22:14;;;;;;;21.90;15.40;;;;;;;17.73;86.91;98990.80;109583;1253;68678;-54
2023/10/22 00:24:41;;;;;;;20.00;14.10;;;;;;;17.83;86.47;98991.91;109536;1252;71221;-52
2023/10/22 00:27:07;;;;;;;17.50;15.50;;;;;;;17.83;86.41;99003.13;109531;1252;62104;-51
2023/10/22 00:29:34;;;;;;;17.90;15.70;;;;;;;17.93;85.84;99005.25;109514;1252;60322;-52
2023/10/22 00:32:02;;;;;;;21.30;16.40;;;;;;;17.93;85.90;98988.87;109584;1252;74472;-52
2023/10/22 00:34:29;;;;;;;21.00;16.70;;;;;;;17.88;86.35;98993.14;109451;1251;69167;-52
2023/10/22 00:36:56;;;;;;;18.90;15.90;;;;;;;17.89;86.48;98994.41;109719;1251;72495;-52
2023/10/22 00:39:22;;;;;;;20.40;16.90;;;;;;;17.88;86.64;98996.71;109726;1250;60674;-52
2023/10/22 00:41:49;;;;;;;21.60;17.40;;;;;;;17.90;86.56;98987.71;109329;1256;58919;-51
2023/10/22 00:44:16;;;;;;;21.40;16.90;;;;;;;17.89;86.70;98981.01;109597;1251;74675;-54
2023/10/22 00:46:47;;;;;;;22.70;17.60;;;;;;;17.97;86.37;98983.54;109619;1250;67511;-52
2023/10/22 00:49:13;;;;;;;20.60;15.50;;;;;;;18.00;86.29;98978.89;109630;1251;72500;-52
2023/10/22 00:51:40;;;;;;;21.60;17.00;;;;;;;17.93;86.39;98975.87;109667;1251;59618;-52
2023/10/22 00:54:07;;;;;;;19.50;15.40;;;;;;;17.90;86.85;98985.41;109632;1251;59267;-51
2023/10/22 00:56:34;;;;;;;21.40;17.90;;;;;;;17.78;88.12;99007.39;109554;1251;73523;-51
2023/10/22 00:59:01;;;;;;;19.00;17.00;;;;;;;17.78;88.13;98997.59;109665;1251;68609;-52
2023/10/22 01:01:28;;;;;;;21.30;16.40;;;;;;;17.88;87.76;99006.45;109488;1251;72777;-52
2023/10/22 01:03:55;;;;;;;21.20;18.00;;;;;;;18.03;86.95;99010.06;109639;1251;60982;-51
2023/10/22 01:06:22;;;;;;;19.70;16.10;;;;;;;18.04;86.83;99008.23;109651;1251;60081;-51
2023/10/22 01:08:48;;;;;;;27.00;17.90;;;;;;;17.96;87.13;99001.21;109348;1251;74372;-51
2023/10/22 01:11:15;;;;;;;23.40;16.70;;;;;;;17.99;87.00;98996.93;109631;1251;67756;-51
2023/10/22 01:13:42;;;;;;;20.80;15.60;;;;;;;17.94;87.28;98992.58;109630;1251;71459;-51
2023/10/22 01:16:08;;;;;;;22.40;17.30;;;;;;;17.89;87.81;98985.95;109627;1250;61613;-51
2023/10/22 01:18:35;;;;;;;19.60;16.30;;;;;;;17.94;87.80;98986.66;109405;1251;59485;-51
2023/10/22 01:21:05;;;;;;;19.20;15.00;;;;;;;17.96;87.84;98986.60;109573;1251;74528;-51
2023/10/22 01:23:38;;;;;;;20.50;16.40;;;;;;;17.93;87.86;98992.48;109594;1251;68659;-53
2023/10/22 01:26:06;;;;;;;34.90;18.30;;;;;;;17.96;88.07;98994.84;109614;1251;72495;-51
2023/10/22 01:28:33;;;;;;;21.30;16.50;;;;;;;17.86;88.41;98993.36;109557;1251;60491;-52
2023/10/22 01:31:00;;;;;;;19.70;16.40;;;;;;;17.89;88.51;98996.27;109569;1253;58948;-51
2023/10/22 01:33:27;;;;;;;19.80;16.60;;;;;;;17.92;88.31;98989.12;109562;1253;74557;-52
2023/10/22 01:35:54;;;;;;;20.70;15.90;;;;;;;18.00;88.21;98983.16;109761;1250;68755;-52
2023/10/22 01:38:21;;;;;;;19.50;15.90;;;;;;;18.04;87.64;98980.33;109549;1250;72665;-52
2023/10/22 01:40:47;;;;;;;38.20;17.30;;;;;;;18.04;87.88;98989.30;109749;1250;61879;-53
2023/10/22 01:43:14;;;;;;;22.10;16.80;;;;;;;18.06;87.73;98996.09;109652;1251;59068;-52
2023/10/22 01:45:40;;;;;;;24.30;18.00;;;;;;;18.12;87.20;98999.86;109686;1251;74806;-53
2023/10/22 01:48:08;;;;;;;21.70;16.70;;;;;;;18.02;88.00;99003.27;109578;1252;68577;-52
2023/10/22 01:50:35;;;;;;;20.00;17.00;;;;;;;18.06;87.80;99004.58;109517;1252;72586;-52
2023/10/22 01:53:02;;;;;;;23.50;17.30;;;;;;;18.10;87.90;98996.67;109556;1252;62293;-53
2023/10/22 01:55:29;;;;;;;23.60;17.70;;;;;;;18.21;86.99;98995.30;109561;1252;58993;-52
2023/10/22 01:57:56;;;;;;;22.10;18.00;;;;;;;18.16;87.22;98991.20;109646;1252;73230;-52
2023/10/22 02:00:22;;;;;;;21.80;17.60;;;;;;;18.08;87.55;98991.68;109520;1252;67552;-53
2023/10/22 02:02:49;;;;;;;23.40;18.50;;;;;;;18.05;88.07;98990.45;109603;1253;71351;-52
2023/10/22 02:05:17;;;;;;;26.70;19.00;;;;;;;18.04;88.21;98990.39;109537;1253;61781;-52
2023/10/22 02:07:43;;;;;;;26.00;18.90;;;;;;;18.03;88.28;98983.08;109215;1258;59095;-52
2023/10/22 02:10:11;;;;;;;25.40;19.30;;;;;;;18.00;88.45;98980.73;109248;1251;73067;-52
2023/10/22 02:12:39;;;;;;;21.70;17.70;;;;;;;17.98;88.76;98973.27;109601;1253;67210;-52
2023/10/22 02:15:06;;;;;;;22.90;18.40;;;;;;;17.95;89.08;98970.23;109586;1252;70695;-52
2023/10/22 02:17:33;;;;;;;21.70;17.30;;;;;;;18.10;88.31;98968.48;109601;1251;60730;-52
2023/10/22 02:20:00;;;;;;;25.10;19.60;;;;;;;18.03;88.45;98963.20;109618;1252;58972;-52
2023/10/22 02:22:26;;;;;;;23.00;17.20;;;;;;;18.02;88.65;98960.91;109408;1252;74939;-52
2023/10/22 02:24:53;;;;;;;23.00;17.20;;;;;;;18.07;88.50;98963.60;109603;1253;68527;-52
2023/10/22 02:27:20;;;;;;;26.80;18.10;;;;;;;18.20;87.86;98967.61;109617;1252;70771;-52
2023/10/22 02:29:46;;;;;;;26.10;19.70;;;;;;;18.18;87.44;98965.52;109468;1252;60926;-52
2023/10/22 02:32:13;;;;;;;25.40;18.50;;;;;;;18.13;87.75;98965.45;109579;1252;59238;-52
2023/10/22 02:34:40;;;;;;;20.40;16.20;;;;;;;18.17;87.30;98969.80;109591;1253;73661;-51
2023/10/22 02:37:07;;;;;;;23.10;17.30;;;;;;;18.19;87.22;98966.64;109578;1252;67410;-51
2023/10/22 02:39:33;;;;;;;24.60;17.60;;;;;;;18.16;87.06;98966.09;109598;1252;72003;-51
2023/10/22 02:42:00;;;;;;;19.10;15.90;;;;;;;18.04;88.16;98962.53;109624;1250;61820;-51
2023/10/22 02:44:27;;;;;;;19.90;16.90;;;;;;;18.04;88.13;98951.52;109759;1250;60222;-51
2023/10/22 02:46:54;;;;;;;24.20;16.40;;;;;;;18.08;87.86;98955.45;109797;1251;75020;-51
2023/10/22 02:49:21;;;;;;;21.70;17.10;;;;;;;18.09;87.66;98957.42;109539;1251;67536;-52
2023/10/22 02:51:48;;;;;;;26.10;18.70;;;;;;;18.04;87.84;98948.13;109720;1250;72503;-52
2023/10/22 02:54:15;;;;;;;23.90;17.00;;;;;;;18.03;87.82;98946.42;109661;1251;61736;-54
2023/10/22 02:56:42;;;;;;;20.50;16.40;;;;;;;17.99;88.24;98948.83;109706;1251;60054;-53
2023/10/22 02:59:08;;;;;;;20.80;17.40;;;;;;;18.00;88.19;98951.98;109746;1250;73940;-53
2023/10/22 03:01:36;;;;;;;22.90;17.80;;;;;;;18.03;88.05;98952.83;109593;1256;68745;-52
2023/10/22 03:04:03;;;;;;;21.00;17.80;;;;;;;18.12;87.32;98956.85;109744;1251;72558;-52
2023/10/22 03:06:30;;;;;;;20.50;15.00;;;;;;;18.00;87.63;98948.57;109569;1253;61923;-52
2023/10/22 03:08:56;;;;;;;24.50;16.00;;;;;;;17.91;88.47;98951.31;109555;1251;59125;-51
2023/10/22 03:11:23;;;;;;;21.10;15.80;;;;;;;17.87;88.66;98959.37;109466;1251;74691;-52
2023/10/22 03:13:50;;;;;;;23.80;18.80;;;;;;;17.89;88.97;98966.65;109673;1251;68627;-52
2023/10/22 03:16:17;;;;;;;20.70;17.60;;;;;;;18.09;87.75;98969.00;109695;1250;71335;-53
2023/10/22 03:18:46;;;;;;;23.10;16.40;;;;;;;18.05;87.80;98963.60;109594;1253;60403;-53
2023/10/22 03:21:19;;;;;;;25.10;17.30;;;;;;;18.13;87.19;98962.10;109728;1250;59000;-52
2023/10/22 03:23:46;;;;;;;22.40;18.50;;;;;;;18.14;87.15;98960.69;109762;1250;73324;-52
2023/10/22 03:26:16;;;;;;;23.30;17.50;;;;;;;18.16;87.19;98963.02;109648;1251;67137;-56
2023/10/22 03:28:43;;;;;;;22.20;18.00;;;;;;;18.19;86.87;98965.42;109695;1251;72463;-52
2023/10/22 03:31:09;;;;;;;24.10;18.20;;;;;;;18.21;86.84;98967.89;109672;1254;61703;-52
2023/10/22 03:33:36;;;;;;;24.10;18.80;;;;;;;18.30;86.29;98970.07;109658;1251;60305;-52
2023/10/22 03:36:04;;;;;;;26.10;18.30;;;;;;;18.31;85.81;98963.30;109771;1251;73137;-52
2023/10/22 03:38:31;;;;;;;23.60;18.20;;;;;;;18.23;86.24;98961.95;109354;1251;67658;-52
2023/10/22 03:41:02;;;;;;;22.60;18.60;;;;;;;18.17;86.58;98963.16;109589;1251;72464;-52
2023/10/22 03:43:29;;;;;;;26.80;19.80;;;;;;;18.19;86.41;98957.48;109607;1251;60638;-52
2023/10/22 03:45:56;;;;;;;23.40;18.50;;;;;;;18.18;86.75;98954.83;109715;1251;59992;-52
2023/10/22 03:48:23;;;;;;;24.40;18.00;;;;;;;18.14;86.56;98948.91;109617;1253;74493;-52
2023/10/22 03:50:51;;;;;;;22.70;18.40;;;;;;;18.14;86.56;98951.20;109549;1252;67366;-52
2023/10/22 03:53:18;;;;;;;44.60;20.30;;;;;;;18.14;86.47;98953.56;109602;1252;71706;-52
2023/10/22 03:55:45;;;;;;;20.80;16.70;;;;;;;18.27;86.00;98957.54;109577;1252;60511;-52
2023/10/22 03:58:11;;;;;;;28.70;18.60;;;;;;;18.31;85.49;98963.77;109586;1253;60003;-53
2023/10/22 04:00:38;;;;;;;29.30;19.00;;;;;;;18.36;85.34;98960.98;109623;1252;74484;-52
2023/10/22 04:03:05;;;;;;;23.60;18.30;;;;;;;18.40;84.92;98959.75;109617;1252;68488;-52
2023/10/22 04:05:32;;;;;;;25.30;19.40;;;;;;;18.34;85.10;98950.80;109636;1251;72686;-52
2023/10/22 04:07:59;;;;;;;24.30;19.40;;;;;;;18.32;85.00;98950.23;109617;1252;60726;-52
2023/10/22 04:10:26;;;;;;;22.50;18.20;;;;;;;18.20;85.59;98945.64;109529;1252;60586;-52
2023/10/22 04:12:52;;;;;;;23.50;17.10;;;;;;;18.19;85.72;98942.59;109430;1252;74550;-52
2023/10/22 04:15:19;;;;;;;23.40;18.40;;;;;;;18.23;85.39;98943.23;109643;1252;67477;-52
2023/10/22 04:17:48;;;;;;;26.80;19.30;;;;;;;18.19;85.71;98939.48;109629;1252;72468;-52
2023/10/22 04:20:16;;;;;;;23.30;17.70;;;;;;;18.18;85.48;98939.45;109584;1252;61669;-52
2023/10/22 04:22:42;;;;;;;29.70;18.10;;;;;;;18.26;84.97;98943.99;109673;1253;60193;-52
2023/10/22 04:25:10;;;;;;;17.60;13.30;;;;;;;18.16;85.41;98938.33;109607;1253;74697;-52
2023/10/22 04:27:37;;;;;;;26.80;18.30;;;;;;;18.06;85.69;98935.70;109619;1252;67567;-52
2023/10/22 04:30:04;;;;;;;28.80;20.80;;;;;;;18.04;86.01;98934.68;109567;1253;72459;-52
2023/10/22 04:32:33;;;;;;;28.30;19.70;;;;;;;18.04;86.40;98937.32;109462;1253;113557;-52
2023/10/22 04:35:00;;;;;;;;;;;;;;;18.14;85.79;98944.02;109643;1252;59878;-51
2023/10/22 04:37:27;;;;;;;27.10;19.50;;;;;;;18.22;85.16;98945.48;109666;1252;74461;-52
2023/10/22 04:39:57;;;;;;;25.80;18.90;;;;;;;18.08;85.67;98949.98;109609;1253;67295;-52
2023/10/22 04:42:26;;;;;;;24.90;18.60;;;;;;;17.99;86.19;98943.17;109673;1251;71193;-52
2023/10/22 04:44:53;;;;;;;27.70;21.00;;;;;;;17.98;86.31;98942.12;109431;1251;61788;-52
2023/10/22 04:47:20;;;;;;;25.70;18.70;;;;;;;17.96;86.16;98937.73;109774;1251;58804;-52
2023/10/22 04:49:49;;;;;;;30.20;19.20;;;;;;;17.79;87.00;98931.91;109735;1250;74694;-52
2023/10/22 04:52:30;;;;;;;46.50;20.30;;;;;;;17.88;86.72;98941.87;109715;1251;68560;-52
2023/10/22 04:54:58;;;;;;;28.90;20.40;;;;;;;17.97;86.36;98943.45;109748;1251;70463;-52
2023/10/22 04:57:26;;;;;;;28.60;18.90;;;;;;;18.00;86.14;98943.10;109659;1251;60380;-53
2023/10/22 04:59:53;;;;;;;22.70;17.70;;;;;;;17.93;86.04;98937.60;109668;1251;60069;-52
2023/10/22 05:02:20;;;;;;;29.80;20.10;;;;;;;17.93;86.05;98939.93;109757;1251;74860;-53
2023/10/22 05:04:47;;;;;;;38.30;20.00;;;;;;;17.82;86.77;98938.79;109775;1251;68567;-53
2023/10/22 05:07:14;;;;;;;27.60;19.50;;;;;;;17.86;86.84;98940.61;109763;1251;72615;-52
2023/10/22 05:09:41;;;;;;;25.40;19.10;;;;;;;17.86;86.38;98937.02;109704;1250;61741;-53
2023/10/22 05:12:08;;;;;;;30.20;20.70;;;;;;;17.83;86.54;98933.98;109761;1251;59995;-53
2023/10/22 05:14:35;;;;;;;28.40;18.60;;;;;;;17.87;86.60;98936.76;109767;1251;74700;-52
2023/10/22 05:17:04;;;;;;;26.80;20.90;;;;;;;17.82;86.65;98939.42;109289;1252;68823;-52
2023/10/22 05:19:31;;;;;;;28.20;18.70;;;;;;;17.94;86.19;98947.67;109406;1251;72724;-53
2023/10/22 05:21:57;;;;;;;33.10;20.40;;;;;;;17.95;85.80;98946.77;109320;1251;61746;-53
2023/10/22 05:24:24;;;;;;;32.70;22.60;;;;;;;18.03;85.58;98950.77;109710;1251;58867;-53
2023/10/22 05:26:51;;;;;;;31.10;21.60;;;;;;;18.02;85.69;98951.98;109772;1250;73128;-53
2023/10/22 05:29:17;;;;;;;31.90;22.20;;;;;;;18.07;85.42;98950.65;109414;1255;66614;-54
2023/10/22 05:31:44;;;;;;;27.60;18.90;;;;;;;18.01;85.39;98940.75;109339;1252;72386;-53
2023/10/22 05:34:11;;;;;;;34.10;23.50;;;;;;;17.95;85.78;98940.59;109630;1251;61777;-54
2023/10/22 05:36:37;;;;;;;31.60;21.90;;;;;;;18.10;85.22;98942.86;109642;1251;59387;-52
2023/10/22 05:39:04;;;;;;;33.70;24.00;;;;;;;18.06;85.11;98951.00;109710;1251;74488;-53
2023/10/22 05:41:31;;;;;;;33.70;22.60;;;;;;;17.97;85.54;98957.48;109685;1251;68777;-52
2023/10/22 05:43:59;;;;;;;35.20;25.10;;;;;;;17.85;86.80;98962.66;109612;1251;72803;-52
2023/10/22 05:46:27;;;;;;;33.30;23.60;;;;;;;17.98;86.31;98969.11;109622;1251;61756;-53
2023/10/22 05:48:54;;;;;;;33.10;25.00;;;;;;;17.93;86.38;98984.20;109616;1252;59954;-53
2023/10/22 05:51:21;;;;;;;32.20;22.40;;;;;;;18.01;86.37;98992.80;109659;1252;73678;-52
2023/10/22 05:53:48;;;;;;;34.90;23.90;;;;;;;18.09;86.04;98994.42;109621;1253;68426;-53
2023/10/22 05:56:15;;;;;;;36.60;23.40;;;;;;;18.08;86.03;98987.02;109526;1253;71283;-52
2023/10/22 05:58:42;;;;;;;40.20;25.80;;;;;;;17.98;86.64;98985.52;109572;1252;60914;-53
2023/10/22 06:01:09;;;;;;;47.90;25.70;;;;;;;17.99;86.69;98987.70;109656;1253;60347;-52
2023/10/22 06:03:36;;;;;;;40.40;26.30;;;;;;;17.90;87.08;98980.30;109550;1253;74651;-53
2023/10/22 06:06:03;;;;;;;43.60;26.60;;;;;;;17.89;87.26;98981.77;109623;1253;68507;-53
2023/10/22 06:08:30;;;;;;;41.60;25.50;;;;;;;17.99;87.04;98990.24;109611;1253;72750;-53
2023/10/22 06:10:57;;;;;;;43.70;26.80;;;;;;;18.07;86.48;98990.29;109205;1254;61773;-53
2023/10/22 06:13:24;;;;;;;41.80;25.50;;;;;;;18.09;86.31;98985.83;109603;1253;59980;-53
2023/10/22 06:15:55;;;;;;;43.30;26.30;;;;;;;18.06;86.70;98984.20;109642;1253;74541;-53
2023/10/22 06:18:22;;;;;;;42.80;26.40;;;;;;;18.14;86.38;98978.36;109577;1253;68487;-53
2023/10/22 06:20:48;;;;;;;37.90;23.90;;;;;;;18.15;86.38;98980.38;109629;1252;71293;-53
2023/10/22 06:23:15;;;;;;;51.80;30.20;;;;;;;18.16;86.49;98981.72;109552;1252;61807;-53
2023/10/22 06:25:42;;;;;;;46.90;29.80;;;;;;;18.27;86.59;98978.30;109554;1252;59973;-51
2023/10/22 06:28:09;;;;;;;50.70;32.00;;;;;;;18.36;86.17;98982.96;109583;1253;74510;-53
2023/10/22 06:30:36;;;;;;;47.20;30.80;;;;;;;18.31;85.79;98973.77;109589;1253;67807;-51
2023/10/22 06:33:03;;;;;;;53.60;30.70;;;;;;;18.34;85.70;98977.34;109565;1253;72701;-53
2023/10/22 06:35:30;;;;;;;77.80;46.70;;;;;;;18.30;85.99;98970.77;109512;1254;61678;-53
2023/10/22 06:37:57;;;;;;;80.10;49.10;;;;;;;18.22;86.89;98960.09;109610;1253;58936;-53
2023/10/22 06:40:24;;;;;;;46.90;28.50;;;;;;;18.19;87.29;98961.62;109559;1252;74879;-53
2023/10/22 06:42:51;;;;;;;39.90;27.40;;;;;;;18.34;86.84;98961.66;109724;1250;67247;-53
2023/10/22 06:45:19;;;;;;;45.30;27.00;;;;;;;18.51;86.23;98953.17;109597;1251;72696;-54
2023/10/22 06:47:46;;;;;;;41.40;26.90;;;;;;;18.59;85.33;98946.92;109657;1251;61838;-55
2023/10/22 06:50:13;;;;;;;42.00;26.30;;;;;;;18.62;85.51;98951.86;109770;1250;58969;-51
2023/10/22 06:52:43;;;;;;;40.20;26.90;;;;;;;18.60;85.75;98956.34;109774;1250;74596;-51
2023/10/22 06:55:10;;;;;;;36.10;25.50;;;;;;;18.74;85.35;98953.72;109741;1250;67250;-52
2023/10/22 06:57:38;;;;;;;37.10;24.50;;;;;;;18.81;84.30;98954.75;109709;1251;72421;-54
2023/10/22 07:00:07;;;;;;;36.60;25.60;;;;;;;18.80;84.17;98949.52;109317;1251;60513;-54
2023/10/22 07:02:34;;;;;;;35.80;25.70;;;;;;;18.73;84.73;98950.70;109294;1251;59083;-51
2023/10/22 07:05:02;;;;;;;36.50;23.80;;;;;;;18.78;84.31;98943.57;109371;1254;74398;-52
2023/10/22 07:07:28;;;;;;;35.20;25.50;;;;;;;18.77;84.55;98942.68;109301;1251;68526;-53
2023/10/22 07:09:55;;;;;;;36.50;25.60;;;;;;;18.84;84.69;98946.55;109621;1251;72953;-52
2023/10/22 07:12:23;;;;;;;36.70;25.20;;;;;;;18.91;84.29;98941.86;109722;1251;60412;-52
2023/10/22 07:14:50;;;;;;;37.10;23.80;;;;;;;18.97;84.38;98933.44;109704;1251;58953;-52
2023/10/22 07:17:17;;;;;;;36.00;24.60;;;;;;;19.12;83.42;98931.09;109660;1253;74479;-52
2023/10/22 07:19:43;;;;;;;32.60;22.90;;;;;;;19.12;83.22;98927.34;109508;1255;68811;-53
2023/10/22 07:22:10;;;;;;;32.20;20.40;;;;;;;19.17;83.32;98924.76;109593;1251;71245;-53
2023/10/22 07:24:37;;;;;;;33.10;25.10;;;;;;;18.98;84.44;98925.56;109746;1250;62059;-52
2023/10/22 07:27:04;;;;;;;37.40;25.90;;;;;;;19.09;84.17;98918.84;109734;1251;60101;-52
2023/10/22 07:29:30;;;;;;;36.00;26.50;;;;;;;19.14;84.01;98917.57;109444;1251;74907;-53
2023/10/22 07:31:57;;;;;;;38.60;26.00;;;;;;;19.22;83.56;98921.73;109659;1251;67883;-52
2023/10/22 07:34:24;;;;;;;32.30;23.30;;;;;;;19.14;83.65;98918.44;109525;1251;72722;-53
2023/10/22 07:36:50;;;;;;;33.70;24.60;;;;;;;19.24;83.59;98915.73;109553;1251;61723;-52
2023/10/22 07:39:17;;;;;;;35.60;25.50;;;;;;;19.35;82.76;98915.54;109529;1252;58944;-53
2023/10/22 07:41:44;;;;;;;36.30;25.80;;;;;;;19.34;82.87;98907.50;109563;1250;74562;-52
2023/10/22 07:44:11;;;;;;;38.90;27.30;;;;;;;19.32;83.68;98906.27;109720;1251;68465;-53
2023/10/22 07:46:37;;;;;;;35.20;26.70;;;;;;;19.49;82.64;98911.36;109689;1251;72558;-52
2023/10/22 07:49:04;;;;;;;32.50;25.00;;;;;;;19.55;82.85;98909.02;109656;1251;61765;-53
2023/10/22 07:51:31;;;;;;;35.70;25.80;;;;;;;19.70;82.02;98909.57;109754;1251;59102;-53
2023/10/22 07:53:58;;;;;;;39.40;26.00;;;;;;;19.62;81.64;98907.79;109761;1251;73192;-53
2023/10/22 07:56:26;;;;;;;31.60;24.60;;;;;;;19.58;82.09;98901.75;109721;1251;68665;-54
2023/10/22 07:58:52;;;;;;;35.10;24.70;;;;;;;19.52;82.40;98898.30;109784;1251;72413;-54
2023/10/22 08:01:19;;;;;;;40.00;24.90;;;;;;;19.68;82.51;98892.50;109704;1251;60851;-52
2023/10/22 08:03:47;;;;;;;39.10;26.40;;;;;;;19.84;81.79;98893.05;109698;1251;59015;-54
2023/10/22 08:06:14;;;;;;;31.70;23.90;;;;;;;19.97;81.38;98899.86;109776;1250;73144;-53
2023/10/22 08:08:41;;;;;;;34.50;25.30;;;;;;;19.95;81.16;98897.98;109794;1251;67899;-53
2023/10/22 08:11:08;;;;;;;37.20;26.00;;;;;;;20.02;80.79;98897.77;109720;1251;72587;-52
2023/10/22 08:13:34;;;;;;;33.90;25.10;;;;;;;19.95;80.42;98892.67;109696;1251;61046;-51
2023/10/22 08:16:05;;;;;;;38.40;26.50;;;;;;;19.99;80.62;98890.34;109369;1253;58927;-52
2023/10/22 08:18:32;;;;;;;37.50;25.40;;;;;;;20.14;80.59;98877.60;109619;1251;74634;-52
2023/10/22 08:21:01;;;;;;;32.20;24.00;;;;;;;20.18;80.59;98872.83;109355;1250;67710;-52
2023/10/22 08:23:29;;;;;;;35.00;24.30;;;;;;;20.08;80.49;98869.83;109744;1251;71334;-52
2023/10/22 08:25:57;;;;;;;33.10;25.60;;;;;;;20.18;79.83;98863.72;109310;1252;60474;-52
2023/10/22 08:28:24;;;;;;;35.50;24.80;;;;;;;20.41;78.39;98855.35;109735;1250;59135;-52
2023/10/22 08:30:50;;;;;;;36.90;24.50;;;;;;;20.32;78.70;98852.95;109671;1251;74467;-52
2023/10/22 08:33:17;;;;;;;35.80;25.00;;;;;;;20.29;79.05;98848.23;109654;1251;68173;-52
2023/10/22 08:35:44;;;;;;;37.80;26.50;;;;;;;20.21;79.97;98846.41;109585;1253;72532;-53
2023/10/22 08:38:13;;;;;;;34.00;21.90;;;;;;;20.30;79.28;98847.34;109466;1252;61767;-53
2023/10/22 08:40:41;;;;;;;37.70;26.60;;;;;;;20.23;79.31;98841.17;109543;1252;60305;-52
2023/10/22 08:43:17;;;;;;;33.00;23.90;;;;;;;20.27;79.41;98837.04;109629;1251;73220;-53
2023/10/22 08:45:49;;;;;;;30.50;22.60;;;;;;;20.44;79.56;98836.15;109767;1251;68547;-53
2023/10/22 08:48:17;;;;;;;34.20;23.80;;;;;;;20.44;78.59;98829.77;109736;1250;72442;-55
2023/10/22 08:50:44;;;;;;;31.80;24.60;;;;;;;20.48;78.48;98827.09;109752;1251;60284;-52
2023/10/22 08:53:12;;;;;;;34.80;25.10;;;;;;;20.65;78.45;98828.55;109759;1254;59569;-52
2023/10/22 08:55:43;;;;;;;32.00;25.20;;;;;;;20.60;78.86;98823.00;109655;1251;73771;-52
2023/10/22 08:58:09;;;;;;;32.00;23.30;;;;;;;20.73;77.97;98818.71;109641;1251;68423;-52
2023/10/22 09:00:36;;;;;;;33.60;24.30;;;;;;;20.74;77.82;98811.64;109639;1251;71647;-53
2023/10/22 09:03:03;;;;;;;39.40;25.80;;;;;;;20.81;77.50;98805.87;109564;1251;61659;-52
2023/10/22 09:05:29;;;;;;;39.30;23.50;;;;;;;20.90;77.46;98803.67;109313;1251;60218;-53
2023/10/22 09:07:58;;;;;;;29.70;22.00;;;;;;;21.00;76.83;98802.03;109773;1251;74739;-61
2023/10/22 09:10:30;;;;;;;31.00;23.20;;;;;;;20.77;78.79;98788.66;109355;1251;68538;-52
2023/10/22 09:13:16;;;;;;;33.70;23.00;;;;;;;20.74;78.85;98784.20;109710;1251;72403;-52
2023/10/22 09:15:44;;;;;;;32.60;22.60;;;;;;;20.87;78.48;98782.20;109705;1251;61805;-52
2023/10/22 09:18:11;;;;;;;35.80;24.10;;;;;;;21.01;77.83;98773.23;109591;1253;59373;-52
2023/10/22 09:20:38;;;;;;;31.10;23.70;;;;;;;21.23;76.88;98776.30;109587;1251;72722;-54
2023/10/22 09:23:12;;;;;;;31.60;22.60;;;;;;;21.45;75.23;98773.10;109721;1251;67295;-53
2023/10/22 09:25:40;;;;;;;38.60;25.10;;;;;;;21.53;74.62;98769.23;109722;1251;72436;-54
2023/10/22 09:28:20;;;;;;;31.10;24.00;;;;;;;21.71;73.44;98767.00;109739;1251;60792;-52
2023/10/22 09:30:47;;;;;;;32.70;23.00;;;;;;;21.64;74.62;98769.66;109535;1252;58987;-54
2023/10/22 09:33:18;;;;;;;26.10;19.60;;;;;;;21.93;73.55;98769.09;109490;1253;74598;-53
2023/10/22 09:36:04;;;;;;;31.60;22.30;;;;;;;21.86;74.68;98768.96;109726;1250;67673;-53
2023/10/22 09:38:46;;;;;;;28.60;22.10;;;;;;;22.15;73.33;98779.44;109714;1250;72671;-53
2023/10/22 09:41:31;;;;;;;25.90;21.20;;;;;;;22.40;72.27;98785.44;109693;1251;61766;-53
2023/10/22 09:44:00;;;;;;;31.50;22.00;;;;;;;22.76;69.65;98784.70;109571;1251;59002;-53
2023/10/22 09:46:32;;;;;;;25.60;20.10;;;;;;;23.09;68.13;98785.89;109584;1250;73732;-53
2023/10/22 09:49:00;;;;;;;27.50;22.60;;;;;;;23.21;67.08;98794.91;109483;1253;68700;-53
2023/10/22 09:51:30;;;;;;;28.40;21.70;;;;;;;23.22;68.15;98784.61;109515;1254;71285;-52
2023/10/22 09:53:57;;;;;;;27.70;20.20;;;;;;;23.08;67.57;98770.23;109487;1254;60872;-53
2023/10/22 09:56:25;;;;;;;25.50;20.90;;;;;;;23.04;66.74;98770.53;109440;1254;60346;-53
2023/10/22 09:59:12;;;;;;;24.70;19.40;;;;;;;23.21;66.05;98767.17;109605;1252;74366;-52
2023/10/22 10:01:39;;;;;;;25.80;19.00;;;;;;;23.43;65.14;98759.57;109519;1253;68618;-52
2023/10/22 10:04:05;;;;;;;28.50;21.40;;;;;;;23.31;65.79;98750.80;109533;1252;72588;-52
2023/10/22 10:06:33;;;;;;;28.10;19.90;;;;;;;23.44;65.37;98752.64;109509;1253;60337;-53
2023/10/22 10:09:02;;;;;;;33.10;21.70;;;;;;;23.57;63.75;98745.87;109533;1254;59909;-52
2023/10/22 10:11:30;;;;;;;35.70;21.70;;;;;;;23.50;63.93;98734.92;109565;1252;74996;-52
2023/10/22 10:13:58;;;;;;;28.50;19.50;;;;;;;23.56;65.01;98727.38;109432;1254;67232;-53
2023/10/22 10:16:25;;;;;;;;;;;;;;;23.75;64.30;98715.88;109478;1251;71512;-52
2023/10/22 10:19:04;;;;;;;26.80;21.60;;;;;;;24.27;62.50;98717.45;109471;1254;60419;-53
2023/10/22 10:21:34;;;;;;;28.90;19.40;;;;;;;24.61;60.84;98707.93;109468;1252;59062;-53
2023/10/22 10:24:23;;;;;;;27.40;18.50;;;;;;;24.88;60.16;98700.11;109495;1253;74519;-51
2023/10/22 10:27:13;;;;;;;25.40;18.10;;;;;;;25.29;57.65;98705.09;109543;1253;67691;-51
2023/10/22 10:29:41;;;;;;;37.60;20.50;;;;;;;25.34;55.72;98701.55;108983;1259;71812;-51
2023/10/22 10:32:14;;;;;;;25.30;19.30;;;;;;;25.32;56.77;98692.09;108984;1259;60000;-51
2023/10/22 10:34:41;;;;;;;24.50;18.40;;;;;;;25.40;55.95;98683.17;109003;1259;59035;-52
2023/10/22 10:37:12;;;;;;;32.90;18.40;;;;;;;25.22;55.92;98672.97;108997;1259;74475;-51
2023/10/22 10:39:42;;;;;;;24.70;18.50;;;;;;;25.20;57.59;98677.56;109019;1259;68713;-52
2023/10/22 10:42:10;;;;;;;26.00;18.40;;;;;;;25.53;56.00;98673.11;109031;1258;70957;-52
2023/10/22 10:44:56;;;;;;;26.70;18.90;;;;;;;24.96;57.35;98671.30;109021;1259;61505;-52
2023/10/22 10:47:27;;;;;;;27.40;19.10;;;;;;;24.56;58.46;98677.20;109023;1259;60378;-52
2023/10/22 10:50:10;;;;;;;29.10;19.60;;;;;;;24.49;59.33;98671.46;109063;1259;73551;-52
2023/10/22 10:52:37;;;;;;;33.30;20.30;;;;;;;24.43;59.61;98665.70;109011;1259;68487;-53
2023/10/22 10:55:07;;;;;;;31.60;21.30;;;;;;;24.47;60.30;98656.68;108915;1260;72507;-51
2023/10/22 10:57:38;;;;;;;27.10;19.60;;;;;;;24.45;60.14;98651.94;108961;1259;62195;-51
2023/10/22 11:00:05;;;;;;;35.90;22.20;;;;;;;24.55;60.36;98651.48;109044;1259;60322;-50
2023/10/22 11:02:40;;;;;;;30.70;21.90;;;;;;;24.60;60.29;98643.27;109029;1258;74707;-51
2023/10/22 11:05:08;;;;;;;33.30;23.20;;;;;;;24.55;60.76;98642.47;109076;1259;68457;-51
2023/10/22 11:07:35;;;;;;;31.30;22.10;;;;;;;24.62;61.27;98644.14;109404;1252;71850;-51
2023/10/22 11:10:12;;;;;;;33.90;23.30;;;;;;;24.65;61.09;98641.61;109769;1251;62444;-51
2023/10/22 11:12:39;;;;;;;41.90;24.90;;;;;;;24.74;60.24;98641.48;109765;1250;60136;-51